sensor_id;sensor_type;location;lat;lon;timestamp;P1;durP1;ratioP1;P2;durP2;ratioP2
79036;SDS011;68434;59.896;30.474;2023-07-31T00:00:30;10.68;;;8.20;;
79036;SDS011;68434;59.896;30.474;2023-07-31T00:02:59;10.93;;;8.02;;
79036;SDS011;68434;59.896;30.474;2023-07-31T00:05:26;10.30;;;8.18;;
79036;SDS011;68434;59.896;30.474;2023-07-31T00:07:54;10.10;;;8.00;;
79036;SDS011;68434;59.896;30.474;2023-07-31T00:10:21;9.35;;;7.60;;
79036;SDS011;68434;59.896;30.474;2023-07-31T00:12:49;9.20;;;7.53;;
79036;SDS011;68434;59.896;30.474;2023-07-31T00:15:17;14.23;;;8.00;;
79036;SDS011;68434;59.896;30.474;2023-07-31T00:17:44;9.50;;;7.53;;
79036;SDS011;68434;59.896;30.474;2023-07-31T00:20:14;10.45;;;7.22;;
79036;SDS011;68434;59.896;30.474;2023-07-31T00:22:42;9.68;;;7.25;;
79036;SDS011;68434;59.896;30.474;2023-07-31T00:25:09;10.60;;;6.97;;
79036;SDS011;68434;59.896;30.474;2023-07-31T00:27:37;9.27;;;7.20;;
79036;SDS011;68434;59.896;30.474;2023-07-31T00:30:05;9.70;;;6.90;;
79036;SDS011;68434;59.896;30.474;2023-07-31T00:32:33;10.25;;;7.45;;
79036;SDS011;68434;59.896;30.474;2023-07-31T00:35:00;10.82;;;7.30;;
79036;SDS011;68434;59.896;30.474;2023-07-31T00:37:32;11.90;;;7.00;;
79036;SDS011;68434;59.896;30.474;2023-07-31T00:40:00;11.23;;;6.68;;
79036;SDS011;68434;59.896;30.474;2023-07-31T00:42:29;11.40;;;7.60;;
79036;SDS011;68434;59.896;30.474;2023-07-31T00:44:57;11.52;;;7.43;;
79036;SDS011;68434;59.896;30.474;2023-07-31T00:47:24;9.70;;;7.50;;
79036;SDS011;68434;59.896;30.474;2023-07-31T00:49:52;10.05;;;7.05;;
79036;SDS011;68434;59.896;30.474;2023-07-31T00:52:20;9.90;;;6.82;;
79036;SDS011;68434;59.896;30.474;2023-07-31T00:54:49;11.18;;;7.47;;
79036;SDS011;68434;59.896;30.474;2023-07-31T00:57:17;9.63;;;8.00;;
79036;SDS011;68434;59.896;30.474;2023-07-31T00:59:45;11.43;;;7.50;;
79036;SDS011;68434;59.896;30.474;2023-07-31T01:02:14;12.35;;;8.27;;
79036;SDS011;68434;59.896;30.474;2023-07-31T01:04:42;13.88;;;8.75;;
79036;SDS011;68434;59.896;30.474;2023-07-31T01:07:11;12.68;;;7.95;;
79036;SDS011;68434;59.896;30.474;2023-07-31T01:09:45;11.40;;;8.20;;
79036;SDS011;68434;59.896;30.474;2023-07-31T01:12:17;10.82;;;7.40;;
79036;SDS011;68434;59.896;30.474;2023-07-31T01:15:01;14.60;;;8.30;;
79036;SDS011;68434;59.896;30.474;2023-07-31T01:17:33;12.18;;;8.23;;
79036;SDS011;68434;59.896;30.474;2023-07-31T01:20:01;10.32;;;7.95;;
79036;SDS011;68434;59.896;30.474;2023-07-31T01:22:37;10.77;;;7.75;;
79036;SDS011;68434;59.896;30.474;2023-07-31T01:25:18;12.30;;;8.07;;
79036;SDS011;68434;59.896;30.474;2023-07-31T01:28:02;9.82;;;7.38;;
79036;SDS011;68434;59.896;30.474;2023-07-31T01:30:32;9.93;;;7.20;;
79036;SDS011;68434;59.896;30.474;2023-07-31T01:33:02;11.15;;;7.78;;
79036;SDS011;68434;59.896;30.474;2023-07-31T01:35:33;12.30;;;7.80;;
79036;SDS011;68434;59.896;30.474;2023-07-31T01:38:01;11.98;;;8.35;;
79036;SDS011;68434;59.896;30.474;2023-07-31T01:40:29;15.80;;;8.57;;
79036;SDS011;68434;59.896;30.474;2023-07-31T01:42:56;12.70;;;8.25;;
79036;SDS011;68434;59.896;30.474;2023-07-31T01:45:25;14.23;;;9.32;;
79036;SDS011;68434;59.896;30.474;2023-07-31T01:47:53;12.82;;;9.18;;
79036;SDS011;68434;59.896;30.474;2023-07-31T01:50:20;17.23;;;10.07;;
79036;SDS011;68434;59.896;30.474;2023-07-31T01:52:48;14.98;;;9.60;;
79036;SDS011;68434;59.896;30.474;2023-07-31T01:55:15;17.40;;;9.50;;
79036;SDS011;68434;59.896;30.474;2023-07-31T01:57:43;14.43;;;8.70;;
79036;SDS011;68434;59.896;30.474;2023-07-31T02:00:11;13.75;;;8.77;;
79036;SDS011;68434;59.896;30.474;2023-07-31T02:02:40;14.38;;;8.98;;
79036;SDS011;68434;59.896;30.474;2023-07-31T02:05:07;11.98;;;8.63;;
79036;SDS011;68434;59.896;30.474;2023-07-31T02:07:37;13.82;;;9.13;;
79036;SDS011;68434;59.896;30.474;2023-07-31T02:10:05;17.30;;;9.75;;
79036;SDS011;68434;59.896;30.474;2023-07-31T02:12:35;18.83;;;10.35;;
79036;SDS011;68434;59.896;30.474;2023-07-31T02:15:04;16.38;;;9.70;;
79036;SDS011;68434;59.896;30.474;2023-07-31T02:17:33;18.38;;;10.43;;
79036;SDS011;68434;59.896;30.474;2023-07-31T02:20:02;14.63;;;9.90;;
79036;SDS011;68434;59.896;30.474;2023-07-31T02:22:32;13.93;;;9.02;;
79036;SDS011;68434;59.896;30.474;2023-07-31T02:25:02;13.82;;;9.45;;
79036;SDS011;68434;59.896;30.474;2023-07-31T02:27:30;17.33;;;9.57;;
79036;SDS011;68434;59.896;30.474;2023-07-31T02:29:58;13.30;;;9.32;;
79036;SDS011;68434;59.896;30.474;2023-07-31T02:32:26;14.82;;;9.65;;
79036;SDS011;68434;59.896;30.474;2023-07-31T02:34:53;13.50;;;9.27;;
79036;SDS011;68434;59.896;30.474;2023-07-31T02:37:22;15.52;;;9.68;;
79036;SDS011;68434;59.896;30.474;2023-07-31T02:39:50;17.73;;;9.10;;
79036;SDS011;68434;59.896;30.474;2023-07-31T02:42:18;16.00;;;9.25;;
79036;SDS011;68434;59.896;30.474;2023-07-31T02:44:46;17.08;;;8.93;;
79036;SDS011;68434;59.896;30.474;2023-07-31T02:47:13;11.77;;;8.75;;
79036;SDS011;68434;59.896;30.474;2023-07-31T02:49:41;12.77;;;8.85;;
79036;SDS011;68434;59.896;30.474;2023-07-31T02:52:11;14.65;;;9.10;;
79036;SDS011;68434;59.896;30.474;2023-07-31T02:54:40;11.23;;;8.27;;
79036;SDS011;68434;59.896;30.474;2023-07-31T02:57:07;11.25;;;7.43;;
79036;SDS011;68434;59.896;30.474;2023-07-31T02:59:35;14.05;;;8.10;;
79036;SDS011;68434;59.896;30.474;2023-07-31T03:02:03;11.90;;;8.40;;
79036;SDS011;68434;59.896;30.474;2023-07-31T03:04:31;16.33;;;8.15;;
79036;SDS011;68434;59.896;30.474;2023-07-31T03:06:58;12.02;;;8.40;;
79036;SDS011;68434;59.896;30.474;2023-07-31T03:09:26;11.18;;;8.23;;
79036;SDS011;68434;59.896;30.474;2023-07-31T03:11:55;12.30;;;8.95;;
79036;SDS011;68434;59.896;30.474;2023-07-31T03:14:22;8.98;;;7.07;;
79036;SDS011;68434;59.896;30.474;2023-07-31T03:16:52;8.57;;;6.95;;
79036;SDS011;68434;59.896;30.474;2023-07-31T03:19:19;11.35;;;6.93;;
79036;SDS011;68434;59.896;30.474;2023-07-31T03:21:47;10.52;;;7.13;;
79036;SDS011;68434;59.896;30.474;2023-07-31T03:24:14;10.20;;;6.90;;
79036;SDS011;68434;59.896;30.474;2023-07-31T03:26:42;9.80;;;6.50;;
79036;SDS011;68434;59.896;30.474;2023-07-31T03:29:11;12.43;;;7.85;;
79036;SDS011;68434;59.896;30.474;2023-07-31T03:31:38;9.80;;;6.65;;
79036;SDS011;68434;59.896;30.474;2023-07-31T03:34:06;10.15;;;6.78;;
79036;SDS011;68434;59.896;30.474;2023-07-31T03:36:33;7.65;;;6.43;;
79036;SDS011;68434;59.896;30.474;2023-07-31T03:39:01;8.70;;;6.00;;
79036;SDS011;68434;59.896;30.474;2023-07-31T03:41:30;9.20;;;6.38;;
79036;SDS011;68434;59.896;30.474;2023-07-31T03:43:57;8.80;;;6.55;;
79036;SDS011;68434;59.896;30.474;2023-07-31T03:46:27;12.15;;;7.22;;
79036;SDS011;68434;59.896;30.474;2023-07-31T03:48:54;11.43;;;7.30;;
79036;SDS011;68434;59.896;30.474;2023-07-31T03:51:22;11.13;;;7.90;;
79036;SDS011;68434;59.896;30.474;2023-07-31T03:53:50;10.77;;;9.23;;
79036;SDS011;68434;59.896;30.474;2023-07-31T03:56:19;13.70;;;8.77;;
79036;SDS011;68434;59.896;30.474;2023-07-31T03:58:48;11.07;;;8.50;;
79036;SDS011;68434;59.896;30.474;2023-07-31T04:01:15;11.80;;;8.27;;
79036;SDS011;68434;59.896;30.474;2023-07-31T04:03:46;12.35;;;8.10;;
79036;SDS011;68434;59.896;30.474;2023-07-31T04:06:14;14.55;;;8.23;;
79036;SDS011;68434;59.896;30.474;2023-07-31T04:08:43;14.63;;;8.32;;
79036;SDS011;68434;59.896;30.474;2023-07-31T04:11:11;12.00;;;7.75;;
79036;SDS011;68434;59.896;30.474;2023-07-31T04:13:39;10.98;;;7.22;;
79036;SDS011;68434;59.896;30.474;2023-07-31T04:16:06;12.20;;;8.30;;
79036;SDS011;68434;59.896;30.474;2023-07-31T04:18:34;10.88;;;7.65;;
79036;SDS011;68434;59.896;30.474;2023-07-31T04:21:03;11.77;;;7.82;;
79036;SDS011;68434;59.896;30.474;2023-07-31T04:23:30;9.82;;;7.57;;
79036;SDS011;68434;59.896;30.474;2023-07-31T04:25:59;15.82;;;8.65;;
79036;SDS011;68434;59.896;30.474;2023-07-31T04:28:27;16.17;;;8.52;;
79036;SDS011;68434;59.896;30.474;2023-07-31T04:30:57;9.60;;;7.38;;
79036;SDS011;68434;59.896;30.474;2023-07-31T04:33:25;10.75;;;8.10;;
79036;SDS011;68434;59.896;30.474;2023-07-31T04:35:53;11.43;;;7.45;;
79036;SDS011;68434;59.896;30.474;2023-07-31T04:38:22;13.95;;;8.13;;
79036;SDS011;68434;59.896;30.474;2023-07-31T04:40:50;10.02;;;7.65;;
79036;SDS011;68434;59.896;30.474;2023-07-31T04:43:17;12.38;;;7.85;;
79036;SDS011;68434;59.896;30.474;2023-07-31T04:45:45;11.43;;;7.30;;
79036;SDS011;68434;59.896;30.474;2023-07-31T04:48:14;12.30;;;7.25;;
79036;SDS011;68434;59.896;30.474;2023-07-31T04:50:41;11.55;;;6.90;;
79036;SDS011;68434;59.896;30.474;2023-07-31T04:53:09;11.52;;;6.80;;
79036;SDS011;68434;59.896;30.474;2023-07-31T04:55:38;13.13;;;7.65;;
79036;SDS011;68434;59.896;30.474;2023-07-31T04:58:05;8.55;;;6.38;;
79036;SDS011;68434;59.896;30.474;2023-07-31T05:00:33;10.73;;;6.38;;
79036;SDS011;68434;59.896;30.474;2023-07-31T05:03:00;8.60;;;6.10;;
79036;SDS011;68434;59.896;30.474;2023-07-31T05:05:28;10.15;;;5.72;;
79036;SDS011;68434;59.896;30.474;2023-07-31T05:07:55;9.85;;;5.85;;
79036;SDS011;68434;59.896;30.474;2023-07-31T05:10:23;7.95;;;6.00;;
79036;SDS011;68434;59.896;30.474;2023-07-31T05:12:52;9.85;;;5.97;;
79036;SDS011;68434;59.896;30.474;2023-07-31T05:15:19;9.40;;;5.72;;
79036;SDS011;68434;59.896;30.474;2023-07-31T05:17:47;7.57;;;5.50;;
79036;SDS011;68434;59.896;30.474;2023-07-31T05:20:15;10.27;;;5.70;;
79036;SDS011;68434;59.896;30.474;2023-07-31T05:22:43;8.77;;;5.35;;
79036;SDS011;68434;59.896;30.474;2023-07-31T05:25:11;7.38;;;4.75;;
79036;SDS011;68434;59.896;30.474;2023-07-31T05:27:38;7.90;;;5.53;;
79036;SDS011;68434;59.896;30.474;2023-07-31T05:30:08;8.50;;;4.95;;
79036;SDS011;68434;59.896;30.474;2023-07-31T05:32:36;7.30;;;5.47;;
79036;SDS011;68434;59.896;30.474;2023-07-31T05:35:03;8.20;;;5.63;;
79036;SDS011;68434;59.896;30.474;2023-07-31T05:37:32;7.43;;;4.88;;
79036;SDS011;68434;59.896;30.474;2023-07-31T05:39:59;9.00;;;5.38;;
79036;SDS011;68434;59.896;30.474;2023-07-31T05:42:27;7.22;;;5.22;;
79036;SDS011;68434;59.896;30.474;2023-07-31T05:44:54;8.45;;;4.75;;
79036;SDS011;68434;59.896;30.474;2023-07-31T05:47:23;7.68;;;4.53;;
79036;SDS011;68434;59.896;30.474;2023-07-31T05:49:51;8.95;;;5.03;;
79036;SDS011;68434;59.896;30.474;2023-07-31T05:52:19;9.38;;;4.93;;
79036;SDS011;68434;59.896;30.474;2023-07-31T05:54:46;7.22;;;4.45;;
79036;SDS011;68434;59.896;30.474;2023-07-31T05:57:14;7.55;;;4.55;;
79036;SDS011;68434;59.896;30.474;2023-07-31T05:59:41;6.90;;;4.60;;
79036;SDS011;68434;59.896;30.474;2023-07-31T06:02:09;9.43;;;4.93;;
79036;SDS011;68434;59.896;30.474;2023-07-31T06:04:38;8.10;;;4.72;;
79036;SDS011;68434;59.896;30.474;2023-07-31T06:07:06;8.35;;;4.68;;
79036;SDS011;68434;59.896;30.474;2023-07-31T06:09:33;6.97;;;4.75;;
79036;SDS011;68434;59.896;30.474;2023-07-31T06:12:01;5.93;;;4.30;;
79036;SDS011;68434;59.896;30.474;2023-07-31T06:14:28;6.95;;;4.30;;
79036;SDS011;68434;59.896;30.474;2023-07-31T06:16:56;7.18;;;4.68;;
79036;SDS011;68434;59.896;30.474;2023-07-31T06:19:23;6.90;;;4.85;;
79036;SDS011;68434;59.896;30.474;2023-07-31T06:21:52;8.25;;;4.20;;
79036;SDS011;68434;59.896;30.474;2023-07-31T06:24:20;9.32;;;4.38;;
79036;SDS011;68434;59.896;30.474;2023-07-31T06:26:47;7.80;;;4.07;;
79036;SDS011;68434;59.896;30.474;2023-07-31T06:29:16;7.38;;;4.07;;
79036;SDS011;68434;59.896;30.474;2023-07-31T06:31:43;5.97;;;4.20;;
79036;SDS011;68434;59.896;30.474;2023-07-31T06:34:11;5.22;;;4.13;;
79036;SDS011;68434;59.896;30.474;2023-07-31T06:36:39;6.00;;;3.83;;
79036;SDS011;68434;59.896;30.474;2023-07-31T06:39:08;5.80;;;4.13;;
79036;SDS011;68434;59.896;30.474;2023-07-31T06:41:35;8.18;;;4.45;;
79036;SDS011;68434;59.896;30.474;2023-07-31T06:44:05;7.32;;;3.95;;
79036;SDS011;68434;59.896;30.474;2023-07-31T06:46:33;5.63;;;4.20;;
79036;SDS011;68434;59.896;30.474;2023-07-31T06:49:00;6.47;;;4.03;;
79036;SDS011;68434;59.896;30.474;2023-07-31T06:51:28;9.88;;;4.03;;
79036;SDS011;68434;59.896;30.474;2023-07-31T06:53:57;7.60;;;4.13;;
79036;SDS011;68434;59.896;30.474;2023-07-31T06:56:26;6.47;;;3.95;;
79036;SDS011;68434;59.896;30.474;2023-07-31T06:58:53;5.70;;;3.55;;
79036;SDS011;68434;59.896;30.474;2023-07-31T07:01:22;9.70;;;4.32;;
79036;SDS011;68434;59.896;30.474;2023-07-31T07:03:50;10.77;;;3.60;;
79036;SDS011;68434;59.896;30.474;2023-07-31T07:06:17;5.97;;;3.58;;
79036;SDS011;68434;59.896;30.474;2023-07-31T07:08:49;9.15;;;4.05;;
79036;SDS011;68434;59.896;30.474;2023-07-31T07:11:17;4.60;;;3.15;;
79036;SDS011;68434;59.896;30.474;2023-07-31T07:13:46;5.65;;;3.33;;
79036;SDS011;68434;59.896;30.474;2023-07-31T07:16:13;5.22;;;3.47;;
79036;SDS011;68434;59.896;30.474;2023-07-31T07:18:41;6.35;;;3.10;;
79036;SDS011;68434;59.896;30.474;2023-07-31T07:21:08;7.72;;;3.50;;
79036;SDS011;68434;59.896;30.474;2023-07-31T07:23:40;5.10;;;3.03;;
79036;SDS011;68434;59.896;30.474;2023-07-31T07:26:07;5.18;;;3.30;;
79036;SDS011;68434;59.896;30.474;2023-07-31T07:28:35;5.10;;;3.10;;
79036;SDS011;68434;59.896;30.474;2023-07-31T07:31:04;7.45;;;3.60;;
79036;SDS011;68434;59.896;30.474;2023-07-31T07:33:32;7.00;;;3.50;;
79036;SDS011;68434;59.896;30.474;2023-07-31T07:36:00;5.57;;;3.75;;
79036;SDS011;68434;59.896;30.474;2023-07-31T07:40:54;5.03;;;3.38;;
79036;SDS011;68434;59.896;30.474;2023-07-31T07:43:22;5.72;;;3.53;;
79036;SDS011;68434;59.896;30.474;2023-07-31T07:45:50;6.85;;;3.55;;
79036;SDS011;68434;59.896;30.474;2023-07-31T07:48:19;6.10;;;3.47;;
79036;SDS011;68434;59.896;30.474;2023-07-31T07:50:46;5.30;;;3.47;;
79036;SDS011;68434;59.896;30.474;2023-07-31T07:53:15;5.88;;;3.22;;
79036;SDS011;68434;59.896;30.474;2023-07-31T07:55:43;4.97;;;3.03;;
79036;SDS011;68434;59.896;30.474;2023-07-31T07:58:10;5.00;;;3.38;;
79036;SDS011;68434;59.896;30.474;2023-07-31T08:00:38;5.88;;;3.15;;
79036;SDS011;68434;59.896;30.474;2023-07-31T08:03:06;5.93;;;3.45;;
79036;SDS011;68434;59.896;30.474;2023-07-31T08:05:35;5.75;;;3.22;;
79036;SDS011;68434;59.896;30.474;2023-07-31T08:08:02;7.05;;;3.33;;
79036;SDS011;68434;59.896;30.474;2023-07-31T08:10:30;5.05;;;3.40;;
79036;SDS011;68434;59.896;30.474;2023-07-31T08:12:58;5.25;;;3.05;;
79036;SDS011;68434;59.896;30.474;2023-07-31T08:15:26;5.88;;;3.17;;
79036;SDS011;68434;59.896;30.474;2023-07-31T08:17:53;4.75;;;2.78;;
79036;SDS011;68434;59.896;30.474;2023-07-31T08:20:21;4.68;;;3.15;;
79036;SDS011;68434;59.896;30.474;2023-07-31T08:22:50;5.95;;;3.20;;
79036;SDS011;68434;59.896;30.474;2023-07-31T08:25:19;4.93;;;3.13;;
79036;SDS011;68434;59.896;30.474;2023-07-31T08:27:46;7.97;;;3.20;;
79036;SDS011;68434;59.896;30.474;2023-07-31T08:30:14;6.57;;;3.47;;
79036;SDS011;68434;59.896;30.474;2023-07-31T08:32:41;17.63;;;3.58;;
79036;SDS011;68434;59.896;30.474;2023-07-31T08:35:09;5.97;;;2.83;;
79036;SDS011;68434;59.896;30.474;2023-07-31T08:37:37;6.18;;;2.80;;
79036;SDS011;68434;59.896;30.474;2023-07-31T08:42:34;6.60;;;2.75;;
79036;SDS011;68434;59.896;30.474;2023-07-31T08:45:13;4.38;;;2.70;;
79036;SDS011;68434;59.896;30.474;2023-07-31T08:47:44;6.65;;;2.70;;
79036;SDS011;68434;59.896;30.474;2023-07-31T08:50:12;5.13;;;2.67;;
79036;SDS011;68434;59.896;30.474;2023-07-31T08:52:40;8.38;;;2.55;;
79036;SDS011;68434;59.896;30.474;2023-07-31T08:55:09;7.05;;;2.63;;
79036;SDS011;68434;59.896;30.474;2023-07-31T08:57:37;4.93;;;2.80;;
79036;SDS011;68434;59.896;30.474;2023-07-31T09:00:06;3.72;;;2.30;;
79036;SDS011;68434;59.896;30.474;2023-07-31T09:02:37;4.75;;;2.58;;
79036;SDS011;68434;59.896;30.474;2023-07-31T09:05:08;4.47;;;2.53;;
79036;SDS011;68434;59.896;30.474;2023-07-31T09:07:37;3.30;;;2.40;;
79036;SDS011;68434;59.896;30.474;2023-07-31T09:10:06;5.35;;;2.50;;
79036;SDS011;68434;59.896;30.474;2023-07-31T09:15:03;4.03;;;2.22;;
79036;SDS011;68434;59.896;30.474;2023-07-31T09:17:32;4.38;;;2.28;;
79036;SDS011;68434;59.896;30.474;2023-07-31T09:20:12;5.07;;;2.55;;
79036;SDS011;68434;59.896;30.474;2023-07-31T09:22:40;3.95;;;2.53;;
79036;SDS011;68434;59.896;30.474;2023-07-31T09:25:16;3.83;;;2.22;;
79036;SDS011;68434;59.896;30.474;2023-07-31T09:27:48;3.47;;;2.40;;
79036;SDS011;68434;59.896;30.474;2023-07-31T09:30:16;2.97;;;2.20;;
79036;SDS011;68434;59.896;30.474;2023-07-31T09:32:44;4.20;;;2.30;;
79036;SDS011;68434;59.896;30.474;2023-07-31T09:35:13;4.38;;;2.70;;
79036;SDS011;68434;59.896;30.474;2023-07-31T09:37:47;3.55;;;2.13;;
79036;SDS011;68434;59.896;30.474;2023-07-31T09:40:26;4.53;;;2.15;;
79036;SDS011;68434;59.896;30.474;2023-07-31T09:42:57;5.45;;;2.38;;
79036;SDS011;68434;59.896;30.474;2023-07-31T09:45:26;4.63;;;2.42;;
79036;SDS011;68434;59.896;30.474;2023-07-31T09:47:54;3.50;;;2.53;;
79036;SDS011;68434;59.896;30.474;2023-07-31T09:50:23;4.65;;;2.40;;
79036;SDS011;68434;59.896;30.474;2023-07-31T09:52:51;4.00;;;2.70;;
79036;SDS011;68434;59.896;30.474;2023-07-31T09:55:19;6.45;;;2.67;;
79036;SDS011;68434;59.896;30.474;2023-07-31T09:57:48;5.20;;;2.72;;
79036;SDS011;68434;59.896;30.474;2023-07-31T10:00:18;4.13;;;2.40;;
79036;SDS011;68434;59.896;30.474;2023-07-31T10:02:48;5.25;;;2.83;;
79036;SDS011;68434;59.896;30.474;2023-07-31T10:05:17;4.85;;;2.40;;
79036;SDS011;68434;59.896;30.474;2023-07-31T10:07:50;3.83;;;2.53;;
79036;SDS011;68434;59.896;30.474;2023-07-31T10:10:20;3.80;;;2.50;;
79036;SDS011;68434;59.896;30.474;2023-07-31T10:12:48;4.25;;;2.67;;
79036;SDS011;68434;59.896;30.474;2023-07-31T10:15:18;5.18;;;2.70;;
79036;SDS011;68434;59.896;30.474;2023-07-31T10:17:47;4.85;;;2.70;;
79036;SDS011;68434;59.896;30.474;2023-07-31T10:20:16;4.00;;;2.92;;
79036;SDS011;68434;59.896;30.474;2023-07-31T10:22:44;4.82;;;3.03;;
79036;SDS011;68434;59.896;30.474;2023-07-31T10:25:12;4.22;;;2.83;;
79036;SDS011;68434;59.896;30.474;2023-07-31T10:27:40;5.65;;;2.83;;
79036;SDS011;68434;59.896;30.474;2023-07-31T10:30:10;3.72;;;2.63;;
79036;SDS011;68434;59.896;30.474;2023-07-31T10:32:43;4.35;;;2.72;;
79036;SDS011;68434;59.896;30.474;2023-07-31T10:35:12;4.00;;;2.20;;
79036;SDS011;68434;59.896;30.474;2023-07-31T10:37:41;4.68;;;2.67;;
79036;SDS011;68434;59.896;30.474;2023-07-31T10:40:10;5.07;;;2.90;;
79036;SDS011;68434;59.896;30.474;2023-07-31T10:42:44;6.38;;;2.97;;
79036;SDS011;68434;59.896;30.474;2023-07-31T10:45:14;4.20;;;3.00;;
79036;SDS011;68434;59.896;30.474;2023-07-31T10:47:59;5.05;;;2.58;;
79036;SDS011;68434;59.896;30.474;2023-07-31T10:50:28;4.03;;;2.85;;
79036;SDS011;68434;59.896;30.474;2023-07-31T10:52:58;4.70;;;3.03;;
79036;SDS011;68434;59.896;30.474;2023-07-31T10:55:28;6.22;;;3.22;;
79036;SDS011;68434;59.896;30.474;2023-07-31T10:57:57;4.00;;;2.40;;
79036;SDS011;68434;59.896;30.474;2023-07-31T11:00:34;5.18;;;2.70;;
79036;SDS011;68434;59.896;30.474;2023-07-31T11:03:05;5.93;;;2.60;;
79036;SDS011;68434;59.896;30.474;2023-07-31T11:05:41;3.72;;;2.53;;
79036;SDS011;68434;59.896;30.474;2023-07-31T11:08:13;5.65;;;3.17;;
79036;SDS011;68434;59.896;30.474;2023-07-31T11:10:42;5.22;;;2.90;;
79036;SDS011;68434;59.896;30.474;2023-07-31T11:13:10;4.63;;;2.80;;
79036;SDS011;68434;59.896;30.474;2023-07-31T11:15:38;3.90;;;2.60;;
79036;SDS011;68434;59.896;30.474;2023-07-31T11:18:07;6.10;;;3.28;;
79036;SDS011;68434;59.896;30.474;2023-07-31T11:20:37;4.78;;;3.15;;
79036;SDS011;68434;59.896;30.474;2023-07-31T11:23:06;6.70;;;3.00;;
79036;SDS011;68434;59.896;30.474;2023-07-31T11:25:36;4.75;;;3.25;;
79036;SDS011;68434;59.896;30.474;2023-07-31T11:28:17;5.43;;;3.38;;
79036;SDS011;68434;59.896;30.474;2023-07-31T11:30:45;4.95;;;3.75;;
79036;SDS011;68434;59.896;30.474;2023-07-31T11:33:13;4.78;;;3.50;;
79036;SDS011;68434;59.896;30.474;2023-07-31T11:35:41;4.90;;;3.50;;
79036;SDS011;68434;59.896;30.474;2023-07-31T11:38:11;5.50;;;3.33;;
79036;SDS011;68434;59.896;30.474;2023-07-31T11:40:42;8.35;;;4.00;;
79036;SDS011;68434;59.896;30.474;2023-07-31T11:43:10;4.47;;;3.47;;
79036;SDS011;68434;59.896;30.474;2023-07-31T11:45:44;3.97;;;3.00;;
79036;SDS011;68434;59.896;30.474;2023-07-31T11:48:18;4.80;;;3.30;;
79036;SDS011;68434;59.896;30.474;2023-07-31T11:50:47;6.35;;;3.10;;
79036;SDS011;68434;59.896;30.474;2023-07-31T11:53:16;3.80;;;3.05;;
79036;SDS011;68434;59.896;30.474;2023-07-31T11:55:47;4.38;;;3.50;;
79036;SDS011;68434;59.896;30.474;2023-07-31T11:58:15;4.90;;;3.85;;
79036;SDS011;68434;59.896;30.474;2023-07-31T12:00:45;7.22;;;3.75;;
79036;SDS011;68434;59.896;30.474;2023-07-31T12:03:13;5.15;;;3.20;;
79036;SDS011;68434;59.896;30.474;2023-07-31T12:05:44;4.80;;;3.25;;
79036;SDS011;68434;59.896;30.474;2023-07-31T12:08:14;3.88;;;2.85;;
79036;SDS011;68434;59.896;30.474;2023-07-31T12:13:11;4.78;;;3.13;;
79036;SDS011;68434;59.896;30.474;2023-07-31T12:15:48;4.22;;;3.15;;
79036;SDS011;68434;59.896;30.474;2023-07-31T12:18:18;5.57;;;3.25;;
79036;SDS011;68434;59.896;30.474;2023-07-31T12:20:53;4.78;;;3.40;;
79036;SDS011;68434;59.896;30.474;2023-07-31T12:23:22;5.05;;;2.80;;
79036;SDS011;68434;59.896;30.474;2023-07-31T12:26:01;4.95;;;3.00;;
79036;SDS011;68434;59.896;30.474;2023-07-31T12:28:29;4.90;;;3.10;;
79036;SDS011;68434;59.896;30.474;2023-07-31T12:33:30;5.25;;;3.08;;
79036;SDS011;68434;59.896;30.474;2023-07-31T12:36:00;5.18;;;2.90;;
79036;SDS011;68434;59.896;30.474;2023-07-31T12:38:29;5.03;;;3.13;;
79036;SDS011;68434;59.896;30.474;2023-07-31T12:40:58;3.63;;;2.80;;
79036;SDS011;68434;59.896;30.474;2023-07-31T12:43:26;6.25;;;3.13;;
79036;SDS011;68434;59.896;30.474;2023-07-31T12:45:54;5.35;;;3.08;;
79036;SDS011;68434;59.896;30.474;2023-07-31T12:48:24;3.80;;;3.17;;
79036;SDS011;68434;59.896;30.474;2023-07-31T12:50:51;3.80;;;3.33;;
79036;SDS011;68434;59.896;30.474;2023-07-31T12:53:19;5.30;;;3.08;;
79036;SDS011;68434;59.896;30.474;2023-07-31T12:55:46;6.07;;;3.30;;
79036;SDS011;68434;59.896;30.474;2023-07-31T12:58:14;6.28;;;3.45;;
79036;SDS011;68434;59.896;30.474;2023-07-31T13:00:42;4.90;;;3.17;;
79036;SDS011;68434;59.896;30.474;2023-07-31T13:03:09;5.90;;;3.33;;
79036;SDS011;68434;59.896;30.474;2023-07-31T13:08:06;4.30;;;3.33;;
79036;SDS011;68434;59.896;30.474;2023-07-31T13:10:33;5.10;;;3.50;;
79036;SDS011;68434;59.896;30.474;2023-07-31T13:13:01;4.35;;;3.63;;
79036;SDS011;68434;59.896;30.474;2023-07-31T13:15:28;4.63;;;3.55;;
79036;SDS011;68434;59.896;30.474;2023-07-31T13:17:56;4.53;;;3.60;;
79036;SDS011;68434;59.896;30.474;2023-07-31T13:20:24;5.78;;;4.00;;
79036;SDS011;68434;59.896;30.474;2023-07-31T13:22:53;5.25;;;3.60;;
79036;SDS011;68434;59.896;30.474;2023-07-31T13:25:20;5.38;;;3.88;;
79036;SDS011;68434;59.896;30.474;2023-07-31T13:27:48;7.32;;;4.68;;
79036;SDS011;68434;59.896;30.474;2023-07-31T13:30:15;6.53;;;4.55;;
79036;SDS011;68434;59.896;30.474;2023-07-31T13:32:43;6.88;;;4.57;;
79036;SDS011;68434;59.896;30.474;2023-07-31T13:35:10;5.43;;;4.75;;
79036;SDS011;68434;59.896;30.474;2023-07-31T13:37:38;5.78;;;3.63;;
79036;SDS011;68434;59.896;30.474;2023-07-31T13:40:08;5.20;;;4.00;;
79036;SDS011;68434;59.896;30.474;2023-07-31T13:42:36;5.43;;;4.07;;
79036;SDS011;68434;59.896;30.474;2023-07-31T13:45:04;5.03;;;3.80;;
79036;SDS011;68434;59.896;30.474;2023-07-31T13:47:32;5.18;;;4.03;;
79036;SDS011;68434;59.896;30.474;2023-07-31T13:50:00;5.55;;;4.53;;
79036;SDS011;68434;59.896;30.474;2023-07-31T13:52:30;7.28;;;4.28;;
79036;SDS011;68434;59.896;30.474;2023-07-31T13:54:58;5.13;;;4.07;;
79036;SDS011;68434;59.896;30.474;2023-07-31T13:57:27;5.22;;;3.83;;
79036;SDS011;68434;59.896;30.474;2023-07-31T13:59:55;5.28;;;3.97;;
79036;SDS011;68434;59.896;30.474;2023-07-31T14:02:22;6.70;;;3.95;;
79036;SDS011;68434;59.896;30.474;2023-07-31T14:04:50;4.32;;;3.80;;
79036;SDS011;68434;59.896;30.474;2023-07-31T14:07:17;6.72;;;3.95;;
79036;SDS011;68434;59.896;30.474;2023-07-31T14:09:45;5.90;;;3.90;;
79036;SDS011;68434;59.896;30.474;2023-07-31T14:12:12;4.75;;;3.50;;
79036;SDS011;68434;59.896;30.474;2023-07-31T14:14:41;5.30;;;4.38;;
79036;SDS011;68434;59.896;30.474;2023-07-31T14:17:09;5.80;;;3.80;;
79036;SDS011;68434;59.896;30.474;2023-07-31T14:19:36;5.63;;;4.40;;
79036;SDS011;68434;59.896;30.474;2023-07-31T14:22:04;5.78;;;4.50;;
79036;SDS011;68434;59.896;30.474;2023-07-31T14:29:27;6.90;;;4.85;;
79036;SDS011;68434;59.896;30.474;2023-07-31T14:31:56;5.50;;;4.03;;
79036;SDS011;68434;59.896;30.474;2023-07-31T14:34:23;5.45;;;3.97;;
79036;SDS011;68434;59.896;30.474;2023-07-31T14:36:51;6.22;;;4.35;;
79036;SDS011;68434;59.896;30.474;2023-07-31T14:39:18;5.30;;;3.42;;
79036;SDS011;68434;59.896;30.474;2023-07-31T14:41:46;6.10;;;3.88;;
79036;SDS011;68434;59.896;30.474;2023-07-31T14:44:14;5.65;;;3.85;;
79036;SDS011;68434;59.896;30.474;2023-07-31T14:46:41;4.47;;;3.22;;
79036;SDS011;68434;59.896;30.474;2023-07-31T14:49:10;7.22;;;4.13;;
79036;SDS011;68434;59.896;30.474;2023-07-31T14:51:38;4.47;;;3.55;;
79036;SDS011;68434;59.896;30.474;2023-07-31T14:54:05;6.07;;;3.70;;
79036;SDS011;68434;59.896;30.474;2023-07-31T14:56:33;7.57;;;3.80;;
79036;SDS011;68434;59.896;30.474;2023-07-31T14:59:00;5.43;;;4.20;;